createdAt,value
2018-12-05T00:00:53.848Z,12.50
2018-12-05T00:01:53.835Z,11.20
2018-12-05T00:02:53.817Z,15.20
2018-12-05T00:03:53.848Z,15.20
2018-12-05T00:04:53.814Z,15.90
2018-12-05T00:05:53.790Z,14.90
2018-12-05T00:06:53.790Z,15.00
2018-12-05T00:07:53.768Z,11.90
2018-12-05T00:08:53.776Z,12.60
2018-12-05T00:09:53.757Z,12.90
2018-12-05T00:10:53.747Z,15.50
2018-12-05T00:11:53.823Z,13.00
2018-12-05T00:12:53.722Z,14.10
2018-12-05T00:13:53.744Z,12.20
2018-12-05T00:14:53.692Z,7.50
2018-12-05T00:15:53.690Z,10.60
2018-12-05T00:16:53.677Z,11.50
2018-12-05T00:17:53.674Z,9.40
2018-12-05T00:18:53.680Z,13.30
2018-12-05T00:19:53.688Z,14.60
2018-12-05T00:20:53.630Z,13.10
2018-12-05T00:21:53.634Z,11.50
2018-12-05T00:22:53.616Z,15.00
2018-12-05T00:23:53.608Z,16.60
2018-12-05T00:24:53.602Z,15.10
2018-12-05T00:25:53.782Z,13.20
2018-12-05T00:26:53.598Z,13.20
2018-12-05T00:27:53.573Z,12.50
2018-12-05T00:28:53.567Z,13.20
2018-12-05T00:29:53.550Z,13.10
2018-12-05T00:30:53.537Z,12.90
2018-12-05T00:31:53.517Z,14.00
2018-12-05T00:32:53.516Z,11.90
2018-12-05T00:33:53.540Z,12.80
2018-12-05T00:34:53.515Z,12.00
2018-12-05T00:35:53.482Z,13.70
2018-12-05T00:36:53.490Z,12.70
2018-12-05T00:37:53.461Z,12.10
2018-12-05T00:38:53.454Z,10.30
2018-12-05T00:39:53.449Z,12.50
2018-12-05T00:40:53.444Z,15.90
2018-12-05T00:41:53.452Z,14.60
2018-12-05T00:42:53.411Z,13.30
2018-12-05T00:43:53.394Z,12.10
2018-12-05T00:44:53.397Z,12.70
2018-12-05T00:45:53.404Z,12.40
2018-12-05T00:46:53.366Z,13.60
2018-12-05T00:47:53.381Z,14.10
2018-12-05T00:48:53.350Z,13.50
2018-12-05T00:49:53.348Z,15.70
2018-12-05T00:50:53.318Z,10.30
2018-12-05T00:51:53.379Z,13.60
2018-12-05T00:52:53.299Z,11.90
2018-12-05T00:53:53.311Z,13.70
2018-12-05T00:54:53.293Z,13.40
2018-12-05T00:55:53.266Z,12.70
2018-12-05T00:56:53.279Z,15.00
2018-12-05T00:57:53.257Z,15.70
2018-12-05T00:58:53.248Z,10.10
2018-12-05T00:59:53.244Z,14.40
2018-12-05T01:00:53.215Z,13.60
2018-12-05T01:01:53.211Z,16.10
2018-12-05T01:02:53.212Z,12.00
2018-12-05T01:03:53.201Z,13.90
2018-12-05T01:04:53.186Z,11.10
2018-12-05T01:05:53.188Z,10.40
2018-12-05T01:06:53.175Z,15.00
2018-12-05T01:07:53.166Z,12.50
2018-12-05T01:08:53.146Z,13.50
2018-12-05T01:09:53.142Z,12.80
2018-12-05T01:10:53.147Z,10.10
2018-12-05T01:11:53.124Z,14.50
2018-12-05T01:12:53.099Z,11.90
2018-12-05T01:13:53.091Z,13.90
2018-12-05T01:14:53.123Z,11.80
2018-12-05T01:15:53.077Z,17.70
2018-12-05T01:16:53.091Z,13.20
2018-12-05T01:17:53.065Z,17.40
2018-12-05T01:18:53.025Z,15.90
2018-12-05T01:19:53.020Z,18.70
2018-12-05T01:20:53.017Z,15.70
2018-12-05T01:21:52.996Z,15.20
2018-12-05T01:22:53.005Z,13.90
2018-12-05T01:23:52.987Z,13.10
2018-12-05T01:24:52.979Z,18.00
2018-12-05T01:25:52.972Z,15.90
2018-12-05T01:26:52.957Z,13.50
2018-12-05T01:27:52.984Z,14.60
2018-12-05T01:28:52.935Z,15.20
2018-12-05T01:29:52.936Z,12.00
2018-12-05T01:30:52.902Z,12.40
2018-12-05T01:31:52.904Z,15.20
2018-12-05T01:32:52.883Z,14.40
2018-12-05T01:33:52.872Z,21.50
2018-12-05T01:34:52.907Z,17.60
2018-12-05T01:35:52.852Z,11.40
2018-12-05T01:36:52.856Z,14.20
2018-12-05T01:37:52.888Z,13.50
2018-12-05T01:38:52.879Z,12.90
2018-12-05T01:39:52.833Z,12.60
2018-12-05T01:40:52.858Z,13.40
2018-12-05T01:41:52.803Z,13.20
2018-12-05T01:42:52.790Z,12.00
2018-12-05T01:43:52.813Z,12.70
2018-12-05T01:44:52.853Z,15.60
2018-12-05T01:45:52.827Z,12.50
2018-12-05T01:46:52.850Z,14.20
2018-12-05T01:47:52.753Z,10.00
2018-12-05T01:48:52.843Z,12.90
2018-12-05T01:49:52.773Z,12.60
2018-12-05T01:50:52.754Z,14.30
2018-12-05T01:51:52.711Z,14.00
2018-12-05T01:52:52.726Z,13.40
2018-12-05T01:53:52.795Z,14.20
2018-12-05T01:54:52.714Z,15.20
2018-12-05T01:55:52.693Z,11.20
2018-12-05T01:56:52.693Z,14.80
2018-12-05T01:57:52.704Z,12.10
2018-12-05T01:58:52.657Z,12.20
2018-12-05T01:59:52.682Z,12.20
2018-12-05T02:00:52.716Z,11.70
2018-12-05T02:01:52.654Z,13.30
2018-12-05T02:02:52.595Z,15.60
2018-12-05T02:03:52.606Z,15.20
2018-12-05T02:04:52.590Z,12.70
2018-12-05T02:05:52.593Z,16.20
2018-12-05T02:06:52.700Z,16.20
2018-12-05T02:07:52.605Z,13.90
2018-12-05T02:08:52.652Z,14.60
2018-12-05T02:09:52.553Z,14.40
2018-12-05T02:10:52.543Z,17.10
2018-12-05T02:11:52.590Z,13.40
2018-12-05T02:12:52.706Z,16.00
2018-12-05T02:13:52.504Z,13.30
2018-12-05T02:14:52.536Z,12.90
2018-12-05T04:22:37.271Z,17.10
2018-12-05T04:23:37.022Z,16.60
2018-12-05T04:24:37.004Z,17.40
2018-12-05T04:25:37.001Z,17.10
2018-12-05T04:26:36.982Z,17.70
2018-12-05T04:27:37.000Z,18.50
2018-12-05T04:28:36.991Z,15.40
2018-12-05T04:29:36.965Z,18.00
2018-12-05T04:30:36.958Z,15.00
2018-12-05T04:31:46.414Z,18.30
2018-12-05T04:32:36.898Z,19.20
2018-12-05T04:33:36.891Z,13.80
2018-12-05T04:34:36.876Z,17.80
2018-12-05T04:35:36.856Z,17.50
2018-12-05T04:36:36.878Z,19.30
2018-12-05T04:37:36.856Z,19.30
2018-12-05T04:38:36.833Z,15.00
2018-12-05T04:39:36.833Z,17.30
2018-12-05T04:40:36.811Z,16.80
2018-12-05T04:41:36.800Z,16.70
2018-12-05T04:42:36.811Z,15.40
2018-12-05T04:43:36.771Z,19.20
2018-12-05T04:44:36.785Z,14.60
2018-12-05T04:45:36.773Z,17.30
2018-12-05T04:46:36.754Z,17.60
2018-12-05T04:47:36.777Z,16.70
2018-12-05T04:48:36.742Z,20.10
2018-12-05T04:49:36.722Z,16.60
2018-12-05T04:50:36.723Z,21.90
2018-12-05T04:51:36.695Z,17.20
2018-12-05T04:52:36.682Z,16.90
2018-12-05T04:53:36.693Z,18.30
2018-12-05T04:54:36.675Z,17.30
2018-12-05T04:55:36.648Z,18.60
2018-12-05T04:56:36.651Z,18.00
2018-12-05T04:57:36.652Z,20.20
2018-12-05T04:58:36.634Z,18.00
2018-12-05T04:59:36.602Z,20.80
2018-12-05T05:00:36.609Z,18.90
2018-12-05T05:01:36.597Z,20.20
2018-12-05T05:02:36.603Z,16.40
2018-12-05T05:03:36.561Z,17.10
2018-12-05T05:04:36.603Z,19.00
2018-12-05T05:05:36.539Z,19.10
2018-12-05T05:06:41.662Z,16.60
2018-12-05T05:07:37.551Z,16.40
2018-12-05T05:08:36.541Z,17.20
2018-12-05T05:09:36.511Z,19.10
2018-12-05T05:10:36.553Z,21.80
2018-12-05T05:11:36.494Z,20.90
2018-12-05T05:12:36.473Z,19.30
2018-12-05T05:13:36.458Z,21.90
2018-12-05T05:14:36.488Z,20.00
2018-12-05T05:15:36.435Z,16.10
2018-12-05T05:16:36.423Z,21.90
2018-12-05T05:17:36.427Z,19.20
2018-12-05T05:18:36.411Z,19.60
2018-12-05T05:19:36.402Z,18.00
2018-12-05T05:20:36.415Z,19.70
2018-12-05T05:21:36.389Z,19.50
2018-12-05T05:22:36.365Z,18.50
2018-12-05T05:23:36.373Z,18.30
2018-12-05T05:24:36.347Z,18.90
2018-12-05T05:25:36.334Z,19.30
2018-12-05T05:26:36.365Z,23.20
2018-12-05T05:27:36.383Z,21.00
2018-12-05T05:28:36.294Z,24.10
2018-12-05T05:29:36.284Z,19.50
2018-12-05T05:30:36.285Z,17.00
2018-12-05T05:31:36.281Z,23.70
2018-12-05T05:32:36.267Z,20.20
2018-12-05T05:33:36.246Z,18.60
2018-12-05T05:34:36.237Z,16.50
2018-12-05T05:35:36.246Z,23.00
2018-12-05T05:36:36.226Z,21.50
2018-12-05T05:37:36.224Z,17.90
2018-12-05T05:38:36.211Z,19.50
2018-12-05T05:39:36.184Z,19.30
2018-12-05T05:40:36.181Z,21.10
2018-12-05T05:41:36.170Z,22.30
2018-12-05T05:42:36.169Z,22.60
2018-12-05T05:43:36.164Z,23.10
2018-12-05T05:44:36.148Z,21.20
2018-12-05T05:45:36.127Z,21.00
2018-12-05T05:46:36.117Z,22.70
2018-12-05T05:47:36.110Z,20.40
2018-12-05T05:48:36.082Z,20.70
2018-12-05T05:49:36.076Z,19.50
2018-12-05T05:50:36.072Z,26.00
2018-12-05T05:51:36.066Z,21.70
2018-12-05T05:52:36.095Z,22.40
2018-12-05T05:53:36.041Z,21.60
2018-12-05T05:54:36.025Z,21.00
2018-12-05T05:55:36.027Z,20.50
2018-12-05T05:56:36.009Z,26.50
2018-12-05T05:57:35.998Z,23.40
2018-12-05T05:58:36.029Z,26.00
2018-12-05T05:59:35.979Z,25.10
2018-12-05T06:00:35.973Z,20.50
2018-12-05T06:01:35.958Z,26.40
2018-12-05T06:02:35.950Z,25.60
2018-12-05T06:03:35.940Z,25.90
2018-12-05T06:04:35.935Z,25.00
2018-12-05T06:05:36.046Z,23.70
2018-12-05T06:06:35.923Z,24.20
2018-12-05T06:07:35.902Z,29.20
2018-12-05T06:08:35.910Z,25.00
2018-12-05T06:09:35.875Z,26.40
2018-12-05T06:10:35.858Z,31.40
2018-12-05T06:11:35.855Z,30.60
2018-12-05T06:12:36.419Z,25.60
2018-12-05T06:13:35.825Z,27.60
2018-12-05T06:14:35.856Z,24.30
2018-12-05T06:15:35.815Z,28.90
2018-12-05T06:16:35.806Z,27.60
2018-12-05T06:17:35.802Z,26.60
2018-12-05T06:18:35.796Z,26.30
2018-12-05T06:19:35.780Z,27.10
2018-12-05T06:20:35.798Z,27.80
2018-12-05T06:21:35.930Z,28.80
2018-12-05T06:22:35.753Z,31.60
2018-12-05T06:23:35.736Z,29.00
2018-12-05T06:24:35.708Z,30.30
2018-12-05T06:25:35.718Z,27.20
2018-12-05T06:27:53.121Z,30.10
2018-12-05T06:29:02.478Z,30.70
2018-12-05T06:30:02.511Z,32.50
2018-12-05T06:31:02.520Z,32.30
2018-12-05T06:31:53.059Z,29.00
2018-12-05T06:32:53.037Z,28.90
2018-12-05T06:33:53.065Z,32.00
2018-12-05T06:34:53.018Z,31.60
2018-12-05T06:35:53.020Z,31.00
2018-12-05T06:36:52.995Z,33.00
2018-12-05T06:37:52.995Z,30.10
2018-12-05T06:38:52.982Z,31.10
2018-12-05T06:39:52.983Z,30.70
2018-12-05T06:40:52.985Z,29.10
2018-12-05T06:41:52.966Z,32.60
2018-12-05T06:42:52.949Z,33.20
2018-12-05T06:43:52.964Z,31.00
2018-12-05T06:44:52.930Z,34.00
2018-12-05T06:45:53.211Z,32.20
2018-12-05T06:46:52.902Z,28.30
2018-12-05T06:47:52.898Z,30.00
2018-12-05T06:48:52.889Z,31.00
2018-12-05T06:49:52.897Z,29.10
2018-12-05T06:50:52.867Z,30.80
2018-12-05T06:51:52.883Z,32.20
2018-12-05T06:52:52.846Z,33.90
2018-12-05T06:53:52.827Z,30.80
2018-12-05T06:54:52.815Z,30.40
2018-12-05T06:55:52.803Z,33.40
2018-12-05T06:56:52.825Z,32.00
2018-12-05T06:57:52.815Z,37.70
2018-12-05T06:58:52.797Z,38.20
2018-12-05T06:59:52.817Z,37.50
2018-12-05T07:00:52.749Z,36.20
2018-12-05T07:01:52.742Z,35.80
2018-12-05T07:02:52.747Z,36.60
2018-12-05T07:03:52.738Z,33.80
2018-12-05T07:04:52.732Z,34.50
2018-12-05T07:05:52.723Z,38.40
2018-12-05T07:06:52.716Z,34.90
2018-12-05T07:07:52.711Z,36.30
2018-12-05T07:08:52.684Z,41.90
2018-12-05T07:09:52.674Z,38.10
2018-12-05T07:10:52.707Z,41.30
2018-12-05T07:11:52.639Z,38.70
2018-12-05T07:12:52.627Z,37.70
2018-12-05T07:13:52.629Z,40.30
2018-12-05T07:14:52.615Z,37.50
2018-12-05T07:15:52.619Z,36.00
2018-12-05T07:16:52.608Z,37.80
2018-12-05T07:17:52.622Z,38.00
2018-12-05T07:18:52.575Z,40.00
2018-12-05T07:19:52.642Z,31.90
2018-12-05T07:20:52.546Z,34.70
2018-12-05T07:21:52.538Z,35.90
2018-12-05T07:22:52.538Z,35.30
2018-12-05T07:23:52.593Z,36.20
2018-12-05T07:24:52.539Z,32.60
2018-12-05T07:25:52.502Z,35.20
2018-12-05T07:26:52.510Z,36.70
2018-12-05T07:27:52.494Z,34.10
2018-12-05T07:28:52.504Z,37.70
2018-12-05T07:29:52.470Z,33.60
2018-12-05T07:30:52.460Z,34.60
2018-12-05T07:31:52.469Z,37.80
2018-12-05T07:32:52.435Z,35.60
2018-12-05T07:33:52.426Z,34.30
2018-12-05T07:34:52.414Z,36.00
2018-12-05T07:35:52.412Z,35.20
2018-12-05T07:36:52.393Z,33.20
2018-12-05T07:37:52.381Z,37.20
2018-12-05T07:38:52.386Z,33.40
2018-12-05T07:39:52.376Z,32.20
2018-12-05T07:40:52.376Z,34.90
2018-12-05T07:41:52.348Z,37.70
2018-12-05T07:42:52.342Z,35.20
2018-12-05T07:43:52.322Z,33.90
2018-12-05T07:44:52.317Z,33.90
2018-12-05T07:45:52.301Z,34.50
2018-12-05T07:46:52.283Z,36.20
2018-12-05T07:47:52.314Z,37.40
2018-12-05T07:48:52.260Z,34.60
2018-12-05T07:49:52.277Z,33.80
2018-12-05T07:50:52.260Z,34.30
2018-12-05T07:51:52.247Z,36.20
2018-12-05T07:52:52.245Z,39.50
2018-12-05T07:53:52.254Z,32.10
2018-12-05T07:54:52.249Z,37.90
2018-12-05T07:55:52.235Z,34.40
2018-12-05T07:56:52.207Z,31.30
2018-12-05T07:57:52.169Z,34.90
2018-12-05T07:58:52.194Z,36.20
2018-12-05T07:59:52.151Z,31.60
2018-12-05T08:00:52.143Z,32.30
2018-12-05T08:01:52.152Z,31.40
2018-12-05T08:02:52.126Z,34.00
2018-12-05T08:03:52.128Z,30.70
2018-12-05T08:04:52.098Z,31.90
2018-12-05T08:05:52.096Z,33.30
2018-12-05T08:06:52.167Z,33.50
2018-12-05T08:07:52.063Z,35.80
2018-12-05T08:08:52.106Z,37.10
2018-12-05T08:09:52.052Z,33.80
2018-12-05T08:10:52.038Z,32.00
2018-12-05T08:11:52.044Z,34.20
2018-12-05T08:12:52.076Z,29.50
2018-12-05T08:13:52.017Z,33.90
2018-12-05T08:14:52.008Z,34.10
2018-12-05T08:15:52.013Z,36.00
2018-12-05T08:16:52.028Z,36.10
2018-12-05T08:17:51.992Z,34.30
2018-12-05T08:18:51.964Z,34.80
2018-12-05T08:19:51.950Z,34.00
2018-12-05T08:20:51.964Z,33.70
2018-12-05T08:21:51.916Z,32.00
2018-12-05T08:22:51.951Z,32.10
2018-12-05T08:23:51.939Z,35.10
2018-12-05T08:24:51.891Z,32.80
2018-12-05T08:25:51.878Z,37.20
2018-12-05T08:26:51.895Z,32.60
2018-12-05T08:27:51.869Z,34.40
2018-12-05T08:28:51.874Z,30.00
2018-12-05T08:29:51.861Z,29.30
2018-12-05T08:30:51.837Z,33.30
2018-12-05T08:31:51.820Z,30.50
2018-12-05T08:32:51.824Z,31.30
2018-12-05T08:33:51.805Z,32.20
2018-12-05T08:34:51.838Z,30.90
2018-12-05T08:35:51.776Z,30.10
2018-12-05T08:36:51.761Z,31.60
2018-12-05T08:37:51.749Z,28.30
2018-12-05T08:38:51.757Z,29.20
2018-12-05T08:39:51.742Z,30.60
2018-12-05T08:40:51.776Z,30.00
2018-12-05T08:41:51.730Z,29.00
2018-12-05T08:42:51.697Z,29.30
2018-12-05T08:43:51.699Z,29.10
2018-12-05T08:44:51.688Z,28.20
2018-12-05T08:45:51.677Z,28.50
2018-12-05T08:46:51.681Z,32.70
2018-12-05T08:47:52.134Z,25.90
2018-12-05T08:48:52.151Z,29.30
2018-12-05T08:49:51.805Z,28.00
2018-12-05T08:50:51.658Z,26.80
2018-12-05T08:51:51.655Z,27.90
2018-12-05T08:52:51.657Z,28.00
2018-12-05T08:53:51.597Z,31.00
2018-12-05T08:54:51.609Z,28.60
2018-12-05T08:55:51.587Z,28.40
2018-12-05T08:56:51.570Z,24.90
2018-12-05T08:57:51.592Z,30.10
2018-12-05T08:58:51.586Z,32.30
2018-12-05T08:59:51.559Z,28.60
2018-12-05T09:00:51.532Z,27.10
2018-12-05T09:01:51.514Z,27.20
2018-12-05T09:02:51.507Z,24.90
2018-12-05T09:03:51.519Z,31.40
2018-12-05T09:04:51.484Z,27.00
2018-12-05T09:05:51.472Z,30.80
2018-12-05T09:06:51.462Z,27.10
2018-12-05T09:07:51.544Z,34.00
2018-12-05T09:08:51.439Z,29.60
2018-12-05T09:09:51.483Z,25.40
2018-12-05T09:10:51.411Z,28.70
2018-12-05T09:11:51.410Z,28.30
2018-12-05T09:12:51.400Z,30.20
2018-12-05T09:13:51.408Z,27.10
2018-12-05T09:14:51.378Z,27.50
2018-12-05T09:15:51.371Z,27.40
2018-12-05T09:16:51.343Z,26.40
2018-12-05T09:17:51.346Z,28.50
2018-12-05T09:18:51.336Z,25.90
2018-12-05T09:19:51.341Z,24.00
2018-12-05T09:20:51.330Z,27.70
2018-12-05T09:21:51.293Z,29.30
2018-12-05T09:22:51.288Z,29.20
2018-12-05T09:23:51.290Z,24.50
2018-12-05T09:24:51.278Z,22.70
2018-12-05T09:25:51.262Z,22.40
2018-12-05T09:26:51.281Z,22.20
2018-12-05T09:27:51.255Z,26.10
2018-12-05T09:28:57.230Z,24.20
2018-12-05T09:29:52.234Z,24.60
2018-12-05T09:30:51.213Z,19.70
2018-12-05T09:31:51.243Z,22.60
2018-12-05T09:32:51.193Z,24.30
2018-12-05T09:33:51.188Z,26.00
2018-12-05T09:34:51.185Z,25.30
2018-12-05T09:35:51.166Z,22.70
2018-12-05T09:36:51.159Z,26.10
2018-12-05T09:37:51.184Z,23.10
2018-12-05T09:38:51.130Z,20.50
2018-12-05T09:39:51.129Z,26.10
2018-12-05T09:40:51.095Z,27.20
2018-12-05T09:41:51.093Z,25.10
2018-12-05T09:42:51.079Z,21.60
2018-12-05T09:43:51.111Z,22.80
2018-12-05T09:44:51.088Z,19.00
2018-12-05T09:45:51.069Z,24.90
2018-12-05T09:46:51.050Z,16.50
2018-12-05T09:47:51.046Z,21.70
2018-12-05T09:48:51.030Z,19.60
2018-12-05T09:49:51.021Z,26.50
2018-12-05T09:50:51.011Z,22.40
2018-12-05T09:51:50.997Z,21.50
2018-12-05T09:52:51.016Z,23.50
2018-12-05T09:53:50.972Z,17.00
2018-12-05T09:54:50.954Z,18.90
2018-12-05T09:55:50.965Z,16.70
2018-12-05T09:56:50.944Z,19.60
2018-12-05T09:57:50.927Z,21.30
2018-12-05T09:58:50.988Z,17.20
2018-12-05T09:59:50.916Z,18.60
2018-12-05T10:00:50.903Z,20.00
2018-12-05T10:01:50.894Z,18.40
2018-12-05T10:02:50.885Z,18.80
2018-12-05T10:03:50.864Z,19.70
2018-12-05T10:04:50.869Z,20.50
2018-12-05T10:05:50.855Z,17.10
2018-12-05T10:06:50.839Z,15.80
2018-12-05T10:07:50.833Z,16.50
2018-12-05T10:08:50.830Z,17.40
2018-12-05T10:09:50.812Z,20.20
2018-12-05T10:10:50.817Z,19.90
2018-12-05T10:11:50.796Z,17.50
2018-12-05T10:12:50.782Z,16.10
2018-12-05T10:13:50.764Z,19.60
2018-12-05T10:14:50.799Z,19.70
2018-12-05T10:15:50.745Z,18.30
2018-12-05T10:16:50.735Z,17.80
2018-12-05T10:17:50.750Z,16.90
2018-12-05T10:18:50.716Z,18.80
2018-12-05T10:19:50.697Z,17.80
2018-12-05T10:20:56.018Z,19.50
2018-12-05T10:21:51.684Z,18.10
2018-12-05T10:22:50.670Z,16.30
2018-12-05T10:23:50.660Z,15.40
2018-12-05T10:24:50.645Z,19.50
2018-12-05T10:25:50.652Z,18.10
2018-12-05T10:26:50.652Z,21.00
2018-12-05T10:27:50.652Z,19.20
2018-12-05T10:28:50.622Z,21.10
2018-12-05T10:29:50.675Z,17.80
2018-12-05T10:30:50.591Z,21.50
2018-12-05T10:32:00.591Z,18.70
2018-12-05T10:32:50.621Z,20.20
2018-12-05T10:33:50.595Z,18.90
2018-12-05T10:34:50.601Z,17.80
2018-12-05T10:35:50.721Z,17.10
2018-12-05T10:36:50.551Z,21.10
2018-12-05T10:37:50.580Z,16.60
2018-12-05T10:38:51.497Z,17.20
2018-12-05T10:39:50.768Z,15.60
2018-12-05T10:40:50.864Z,16.80
2018-12-05T10:41:50.509Z,17.50
2018-12-05T10:42:50.592Z,20.10
2018-12-05T10:43:50.995Z,17.60
2018-12-05T10:44:50.502Z,14.30
2018-12-05T10:45:51.002Z,14.70
2018-12-05T10:46:50.514Z,15.90
2018-12-05T10:47:50.445Z,18.90
2018-12-05T10:48:51.637Z,18.00
2018-12-05T10:49:50.438Z,21.00
2018-12-05T10:50:50.461Z,19.40
2018-12-05T10:51:50.399Z,20.10
2018-12-05T10:52:50.436Z,15.00
2018-12-05T10:53:50.348Z,20.10
2018-12-05T10:54:50.390Z,16.70
2018-12-05T10:55:50.364Z,15.50
2018-12-05T10:56:50.491Z,16.70
2018-12-05T10:57:50.322Z,14.50
2018-12-05T10:58:50.325Z,15.80
2018-12-05T10:59:50.340Z,17.80
2018-12-05T11:00:50.442Z,16.70
2018-12-05T11:01:50.323Z,16.30
2018-12-05T11:02:50.265Z,20.40
2018-12-05T11:03:50.261Z,13.90
2018-12-05T11:04:50.539Z,16.20
2018-12-05T11:05:50.337Z,14.50
2018-12-05T11:06:50.232Z,15.00
2018-12-05T11:07:50.238Z,17.30
2018-12-05T11:08:50.222Z,14.90
2018-12-05T11:09:50.243Z,15.90
2018-12-05T11:10:50.358Z,14.60
2018-12-05T11:11:50.175Z,14.60
2018-12-05T11:12:50.312Z,15.00
2018-12-05T11:13:50.139Z,15.80
2018-12-05T11:14:50.154Z,17.40
2018-12-05T11:15:50.206Z,18.50
2018-12-05T11:16:50.176Z,15.20
2018-12-05T11:17:50.195Z,17.10
2018-12-05T11:18:50.112Z,19.00
2018-12-05T11:19:50.096Z,18.80
2018-12-05T11:20:50.133Z,18.10
2018-12-05T11:21:50.128Z,15.70
2018-12-05T11:22:50.104Z,17.40
2018-12-05T11:23:50.175Z,17.40
2018-12-05T11:24:50.072Z,19.20
2018-12-05T11:25:50.103Z,20.70
2018-12-05T11:26:50.046Z,18.00
2018-12-05T11:27:50.018Z,15.80
2018-12-05T11:28:50.057Z,18.30
2018-12-05T11:29:49.985Z,17.20
2018-12-05T11:30:49.998Z,15.90
2018-12-05T11:31:49.951Z,13.80
2018-12-05T11:32:50.293Z,14.70
2018-12-05T11:33:50.500Z,14.30
2018-12-05T11:34:49.909Z,14.70
2018-12-05T11:35:50.159Z,13.90
2018-12-05T11:36:49.937Z,14.20
2018-12-05T11:37:49.944Z,15.70
2018-12-05T11:38:49.887Z,15.70
2018-12-05T11:39:50.058Z,12.70
2018-12-05T11:40:49.881Z,14.60
2018-12-05T11:41:49.947Z,14.30
2018-12-05T11:42:49.955Z,14.40
2018-12-05T11:44:01.546Z,12.60
2018-12-05T11:44:49.899Z,14.60
2018-12-05T11:45:49.803Z,15.40
2018-12-05T11:46:49.800Z,14.20
2018-12-05T11:47:49.832Z,13.80
2018-12-05T11:48:58.681Z,15.20
2018-12-05T11:49:59.268Z,16.80
2018-12-05T11:50:50.607Z,16.10
2018-12-05T11:51:59.234Z,15.30
2018-12-05T11:52:49.751Z,12.80
2018-12-05T11:53:49.717Z,13.40
2018-12-05T11:54:49.740Z,12.00
2018-12-05T11:55:49.721Z,12.50
2018-12-05T11:56:49.722Z,15.60
2018-12-05T11:57:49.696Z,13.70
2018-12-05T11:58:49.840Z,12.50
2018-12-05T11:59:49.828Z,11.80
2018-12-05T12:00:59.672Z,10.40
2018-12-05T12:01:49.646Z,14.20
2018-12-05T12:02:50.677Z,14.60
2018-12-05T12:03:49.612Z,15.00
2018-12-05T12:04:49.667Z,14.20
2018-12-05T12:05:49.751Z,14.00
2018-12-05T12:06:49.646Z,18.10
2018-12-05T12:07:49.623Z,13.90
2018-12-05T12:08:49.605Z,12.20
2018-12-05T12:09:49.797Z,9.30
2018-12-05T12:10:49.825Z,14.20
2018-12-05T12:11:49.591Z,12.40
2018-12-05T12:12:49.811Z,12.00
2018-12-05T12:13:49.518Z,12.70
2018-12-05T12:14:49.520Z,13.30
2018-12-05T12:15:49.563Z,9.60
2018-12-05T12:16:49.571Z,11.40
2018-12-05T12:17:49.524Z,11.70
2018-12-05T12:18:49.604Z,15.60
2018-12-05T12:19:49.485Z,14.10
2018-12-05T12:20:49.479Z,11.40
2018-12-05T12:21:49.453Z,11.40
2018-12-05T12:22:49.609Z,15.10
2018-12-05T12:23:49.559Z,10.70
2018-12-05T12:24:49.438Z,14.00
2018-12-05T12:25:49.454Z,12.60
2018-12-05T12:26:49.499Z,12.50
2018-12-05T12:27:49.395Z,11.90
2018-12-05T12:28:49.446Z,8.70
2018-12-05T12:29:49.659Z,12.10
2018-12-05T12:30:49.534Z,12.50
2018-12-05T12:31:49.331Z,10.30
2018-12-05T12:32:49.312Z,12.40
2018-12-05T12:33:49.322Z,11.10
2018-12-05T12:34:49.438Z,10.60
2018-12-05T12:35:49.298Z,11.00
2018-12-05T12:36:49.295Z,12.20
2018-12-05T12:37:49.377Z,13.10
2018-12-05T12:38:50.179Z,7.60
2018-12-05T12:39:49.816Z,10.80
2018-12-05T12:40:49.315Z,9.20
2018-12-05T12:41:50.179Z,7.20
2018-12-05T12:42:49.287Z,9.00
2018-12-05T12:43:49.432Z,10.20
2018-12-05T12:44:49.382Z,8.40
2018-12-05T12:45:49.300Z,6.60
2018-12-05T12:46:49.627Z,8.40
2018-12-05T12:47:49.498Z,10.10
2018-12-05T12:48:49.195Z,9.10
2018-12-05T12:49:49.161Z,10.30
2018-12-05T12:50:49.128Z,7.60
2018-12-05T12:51:49.181Z,9.50
2018-12-05T12:52:49.130Z,9.40
2018-12-05T12:53:49.483Z,7.30
2018-12-05T12:54:49.669Z,11.70
2018-12-05T12:55:49.199Z,7.80
2018-12-05T12:56:49.276Z,10.30
2018-12-05T12:57:49.124Z,9.50
2018-12-05T12:58:49.133Z,8.70
2018-12-05T12:59:49.222Z,8.70
2018-12-05T13:00:49.303Z,8.80
2018-12-05T13:01:49.021Z,11.20
2018-12-05T13:02:49.074Z,9.00
2018-12-05T13:03:49.300Z,9.90
2018-12-05T13:04:48.988Z,9.70
2018-12-05T13:05:49.150Z,8.80
2018-12-05T13:06:49.054Z,10.40
2018-12-05T13:07:49.062Z,9.50
2018-12-05T13:08:48.949Z,9.00
2018-12-05T13:09:48.943Z,8.10
2018-12-05T13:10:48.979Z,10.10
2018-12-05T13:11:48.975Z,10.00
2018-12-05T13:12:48.936Z,8.90
2018-12-05T13:13:49.279Z,8.50
2018-12-05T13:14:48.961Z,6.60
2018-12-05T13:15:48.922Z,10.90
2018-12-05T13:16:49.029Z,8.10
2018-12-05T13:17:48.887Z,7.80
2018-12-05T13:18:49.222Z,8.40
2018-12-05T13:19:48.961Z,9.80
2018-12-05T13:20:49.693Z,8.90
2018-12-05T13:21:48.810Z,8.70
2018-12-05T13:22:48.857Z,9.60
2018-12-05T13:23:48.808Z,8.30
2018-12-05T13:24:48.903Z,9.30
2018-12-05T13:25:48.826Z,12.10
2018-12-05T13:26:49.128Z,9.90
2018-12-05T13:27:48.895Z,10.60
2018-12-05T13:28:48.858Z,7.90
2018-12-05T13:29:49.119Z,11.40
2018-12-05T13:30:48.987Z,9.70
2018-12-05T13:31:48.699Z,9.10
2018-12-05T13:32:48.721Z,8.50
2018-12-05T13:33:48.739Z,11.20
2018-12-05T13:34:48.762Z,8.60
2018-12-05T13:35:48.968Z,9.80
2018-12-05T13:36:48.801Z,10.90
2018-12-05T13:37:48.791Z,12.00
2018-12-05T13:38:48.655Z,8.90
2018-12-05T13:39:48.668Z,10.70
2018-12-05T13:40:48.865Z,12.10
2018-12-05T13:41:48.716Z,9.90
2018-12-05T13:42:48.621Z,7.80
2018-12-05T13:43:48.596Z,10.50
2018-12-05T13:44:48.694Z,9.00
2018-12-05T13:45:48.561Z,10.50
2018-12-05T13:46:49.746Z,8.50
2018-12-05T13:47:48.698Z,9.30
2018-12-05T13:48:48.738Z,9.50
2018-12-05T13:49:48.632Z,8.70
2018-12-05T13:50:48.655Z,8.30
2018-12-05T13:51:48.525Z,13.90
2018-12-05T13:52:49.688Z,9.10
2018-12-05T13:53:48.950Z,10.80
2018-12-05T13:54:48.482Z,11.70
2018-12-05T13:55:48.676Z,10.50
2018-12-05T13:56:48.451Z,10.30
2018-12-05T13:57:48.476Z,11.00
2018-12-05T13:58:48.499Z,11.10
2018-12-05T13:59:48.589Z,11.60
2018-12-05T14:00:48.497Z,12.00
2018-12-05T14:01:48.561Z,9.70
2018-12-05T14:02:48.757Z,8.20
2018-12-05T14:03:49.515Z,11.40
2018-12-05T14:04:48.850Z,11.80
2018-12-05T14:05:48.539Z,12.10
2018-12-05T14:06:48.517Z,11.10
2018-12-05T14:07:48.396Z,9.70
2018-12-05T14:08:48.872Z,12.60
2018-12-05T14:09:48.426Z,11.70
2018-12-05T14:10:48.640Z,10.10
2018-12-05T14:11:48.302Z,9.70
2018-12-05T14:12:48.278Z,11.70
2018-12-05T14:13:49.077Z,10.70
2018-12-05T14:14:48.286Z,11.40
2018-12-05T14:15:49.190Z,13.90
2018-12-05T14:16:48.327Z,11.60
2018-12-05T14:17:48.719Z,12.50
2018-12-05T14:18:48.748Z,12.30
2018-12-05T14:19:48.289Z,11.40
2018-12-05T14:20:49.196Z,13.00
2018-12-05T14:21:48.197Z,14.00
2018-12-05T14:22:48.189Z,11.40
2018-12-05T14:23:48.262Z,12.20
2018-12-05T14:24:48.315Z,13.80
2018-12-05T14:25:48.758Z,15.00
2018-12-05T14:26:50.203Z,11.40
2018-12-05T14:27:48.130Z,13.30
2018-12-05T14:28:48.266Z,14.90
2018-12-05T14:29:48.202Z,11.30
2018-12-05T14:30:48.199Z,12.30
2018-12-05T14:31:48.102Z,11.80
2018-12-05T14:32:48.693Z,11.20
2018-12-05T14:33:48.087Z,10.80
2018-12-05T14:34:48.730Z,13.20
2018-12-05T14:35:48.889Z,13.40
2018-12-05T14:36:48.914Z,12.60
2018-12-05T14:37:48.096Z,11.10
2018-12-05T14:38:48.069Z,12.80
2018-12-05T14:39:48.669Z,15.60
2018-12-05T14:40:48.109Z,12.10
2018-12-05T14:41:48.106Z,13.40
2018-12-05T14:42:48.012Z,13.00
2018-12-05T14:43:48.169Z,16.10
2018-12-05T14:44:47.948Z,13.30
2018-12-05T14:45:48.224Z,12.90
2018-12-05T14:46:48.100Z,11.80
2018-12-05T14:47:47.931Z,12.60
2018-12-05T14:48:47.911Z,11.30
2018-12-05T14:49:47.957Z,13.40
2018-12-05T14:50:47.967Z,11.20
2018-12-05T14:51:48.002Z,14.00
2018-12-05T14:52:48.342Z,11.80
2018-12-05T14:53:48.015Z,13.50
2018-12-05T14:54:48.226Z,13.10
2018-12-05T14:55:47.884Z,10.90
2018-12-05T14:56:47.955Z,12.90
2018-12-05T14:57:47.867Z,12.40
2018-12-05T14:58:48.796Z,12.70
2018-12-05T14:59:48.431Z,13.20
2018-12-05T15:00:50.486Z,13.70
2018-12-05T15:01:47.901Z,13.00
2018-12-05T15:02:47.807Z,12.50